Time;durP1;ratioP1;P1;durP2;ratioP2;P2;SDS_P1;SDS_P2;PMS_P1;PMS_P2;Temp;Humidity;BMP_temperature;BMP_pressure;BME280_temperature;BME280_humidity;BME280_pressure;Samples;Min_cycle;Max_cycle;Signal;HPM_P1;HPM_P2
2023/11/08 00:02:21;;;;;;;6.93;1.13;;;;;;;5.33;100.00;98898.69;5021521;28;20030;-75
2023/11/08 00:04:46;;;;;;;3.45;1.50;;;;;;;5.22;100.00;98870.38;5022196;28;20026;-76
2023/11/08 00:07:12;;;;;;;4.35;1.23;;;;;;;5.55;100.00;98920.50;5022117;28;20029;-76
2023/11/08 00:09:37;;;;;;;4.57;1.30;;;;;;;5.50;100.00;98896.84;5020992;28;20089;-76
2023/11/08 00:12:03;;;;;;;4.28;1.27;;;;;;;5.62;100.00;98902.72;5020714;28;20022;-76
2023/11/08 00:14:29;;;;;;;5.32;1.67;;;;;;;5.70;100.00;98906.22;5019366;28;20045;-76
2023/11/08 00:16:56;;;;;;;4.68;1.60;;;;;;;5.58;100.00;98896.00;5017794;28;20018;-76
2023/11/08 00:19:22;;;;;;;4.25;1.20;;;;;;;5.77;100.00;98911.75;5018947;28;20030;-76
2023/11/08 00:21:47;;;;;;;3.65;1.08;;;;;;;5.70;100.00;98886.59;5019979;28;20060;-77
2023/11/08 00:24:12;;;;;;;4.65;1.30;;;;;;;5.75;100.00;98891.47;5020638;28;20026;-76
2023/11/08 00:26:37;;;;;;;3.05;0.93;;;;;;;5.80;100.00;98881.88;5020119;28;20045;-76
2023/11/08 00:29:03;;;;;;;4.10;1.10;;;;;;;5.87;100.00;98899.00;5011991;28;20259;-76
2023/11/08 00:31:28;;;;;;;6.55;1.92;;;;;;;5.93;100.00;98913.56;5019980;28;20022;-76
2023/11/08 00:33:53;;;;;;;8.65;1.27;;;;;;;5.86;100.00;98905.34;5021976;28;20100;-76
2023/11/08 00:36:19;;;;;;;1.52;1.20;;;;;;;5.85;100.00;98892.94;5020143;28;20021;-77
2023/11/08 00:38:46;;;;;;;4.25;1.58;;;;;;;5.94;100.00;98912.59;5020977;28;20018;-76
2023/11/08 00:41:13;;;;;;;4.03;1.20;;;;;;;5.93;100.00;98909.06;5021450;28;20014;-78
2023/11/08 00:43:38;;;;;;;6.25;1.20;;;;;;;5.96;100.00;98918.63;5020556;28;20390;-77
2023/11/08 00:46:03;;;;;;;3.00;1.02;;;;;;;5.82;100.00;98892.47;5020252;28;20026;-75
2023/11/08 00:48:29;;;;;;;4.85;0.85;;;;;;;5.90;100.00;98901.34;5021427;28;20057;-77
2023/11/08 00:50:54;;;;;;;6.85;1.38;;;;;;;6.09;100.00;98921.63;5021745;28;20097;-76
2023/11/08 00:53:20;;;;;;;3.28;1.10;;;;;;;6.02;100.00;98903.69;5024239;28;20030;-77
2023/11/08 00:55:46;;;;;;;3.47;0.80;;;;;;;6.09;100.00;98915.41;5024706;28;20049;-76
2023/11/08 00:58:11;;;;;;;5.53;1.35;;;;;;;6.04;100.00;98907.88;5024147;28;20056;-76
2023/11/08 01:00:36;;;;;;;5.03;1.38;;;;;;;6.01;100.00;98904.69;5023934;28;20018;-77
2023/11/08 01:03:02;;;;;;;3.17;1.10;;;;;;;6.07;100.00;98910.22;5025081;28;20020;-77
2023/11/08 01:05:28;;;;;;;6.47;1.13;;;;;;;6.19;100.00;98921.44;5023653;28;20101;-76
2023/11/08 01:07:54;;;;;;;3.22;0.88;;;;;;;6.19;100.00;98913.38;5023813;28;20033;-76
2023/11/08 01:10:21;;;;;;;6.78;1.85;;;;;;;6.15;100.00;98907.50;5025002;28;20030;-75
2023/11/08 01:12:47;;;;;;;3.20;0.60;;;;;;;6.27;100.00;98918.72;5022405;28;20033;-75
2023/11/08 01:15:13;;;;;;;2.17;0.90;;;;;;;6.20;100.00;98893.56;5023138;28;20265;-76
2023/11/08 01:17:38;;;;;;;1.35;0.70;;;;;;;6.28;100.00;98915.00;5021623;28;20026;-77
2023/11/08 01:20:04;;;;;;;3.65;1.00;;;;;;;6.26;100.00;98908.13;5024827;28;20029;-75
2023/11/08 01:22:30;;;;;;;2.85;0.80;;;;;;;6.23;100.00;98908.50;5025061;28;20215;-76
2023/11/08 01:24:55;;;;;;;2.10;0.82;;;;;;;6.05;100.00;98904.19;5023990;28;20052;-75
2023/11/08 01:27:20;;;;;;;6.43;0.73;;;;;;;5.88;100.00;98908.72;5023277;28;20033;-76
2023/11/08 01:29:45;;;;;;;1.70;0.63;;;;;;;5.83;100.00;98910.25;5024912;28;20037;-77
2023/11/08 01:32:11;;;;;;;3.67;1.05;;;;;;;5.81;100.00;98914.94;5019962;28;20033;-76
2023/11/08 01:34:36;;;;;;;3.35;1.00;;;;;;;5.78;100.00;98904.53;5019590;28;20034;-77
2023/11/08 01:37:02;;;;;;;4.85;0.90;;;;;;;5.67;100.00;98901.19;5024142;28;20022;-75
2023/11/08 01:39:27;;;;;;;2.20;0.95;;;;;;;5.64;100.00;98912.28;5023446;28;20052;-78
2023/11/08 01:41:53;;;;;;;5.63;1.00;;;;;;;5.61;100.00;98891.16;5024326;28;20342;-75
2023/11/08 01:44:19;;;;;;;5.18;1.48;;;;;;;5.76;100.00;98909.22;5024571;28;20040;-77
2023/11/08 01:46:48;;;;;;;3.30;0.90;;;;;;;5.82;100.00;98901.34;5020470;28;20047;-77
2023/11/08 01:49:13;;;;;;;4.88;1.42;;;;;;;6.02;100.00;98909.03;5022915;28;20026;-76
2023/11/08 01:51:40;;;;;;;5.78;1.20;;;;;;;5.99;100.00;98899.50;5013407;28;20222;-76
2023/11/08 01:54:06;;;;;;;2.70;0.50;;;;;;;6.07;100.00;98896.78;5018779;28;20029;-75
2023/11/08 01:56:32;;;;;;;1.23;0.60;;;;;;;6.19;100.00;98899.13;5022228;28;20028;-76
2023/11/08 01:58:57;;;;;;;5.38;1.15;;;;;;;6.16;100.00;98889.56;5023199;28;20319;-75
2023/11/08 02:01:23;;;;;;;4.95;1.00;;;;;;;6.26;100.00;98911.69;5022212;28;20017;-76
2023/11/08 02:03:53;;;;;;;2.60;0.70;;;;;;;6.12;100.00;98897.09;5021794;28;20493;-76
2023/11/08 02:06:18;;;;;;;6.93;1.10;;;;;;;6.14;100.00;98907.69;5021532;28;20029;-77
2023/11/08 02:08:45;;;;;;;1.55;0.68;;;;;;;6.18;100.00;98914.38;5022960;28;20022;-75
2023/11/08 02:11:12;;;;;;;5.20;0.88;;;;;;;6.09;100.00;98900.13;5022278;28;20362;-75
2023/11/08 02:13:38;;;;;;;4.22;0.93;;;;;;;6.11;100.00;98911.56;5022340;28;20076;-76
2023/11/08 02:16:04;;;;;;;2.38;0.90;;;;;;;6.11;100.00;98908.03;5020566;28;20331;-76
2023/11/08 02:18:33;;;;;;;3.38;0.77;;;;;;;6.18;100.00;98905.47;5023417;28;20033;-75
2023/11/08 02:21:00;;;;;;;2.53;0.65;;;;;;;6.26;100.00;98906.31;5024058;28;20173;-75
2023/11/08 02:23:26;;;;;;;3.65;0.63;;;;;;;6.35;100.00;98907.09;5014035;28;20053;-75
2023/11/08 02:25:52;;;;;;;8.55;1.00;;;;;;;6.31;100.00;98893.19;5019081;28;20034;-77
2023/11/08 02:28:19;;;;;;;3.65;0.95;;;;;;;6.32;100.00;98886.78;5030624;28;20025;-77
2023/11/08 02:30:53;;;;;;;3.63;0.90;;;;;;;6.31;100.00;98890.50;5023187;28;20017;-77
2023/11/08 02:33:28;;;;;;;6.43;1.02;;;;;;;6.40;100.00;98885.94;5019658;28;20029;-78
2023/11/08 02:35:54;;;;;;;2.38;0.68;;;;;;;6.38;100.00;98890.63;5021482;28;20021;-76
2023/11/08 02:38:20;;;;;;;3.63;0.65;;;;;;;6.47;100.00;98896.81;5016946;28;20152;-75
2023/11/08 02:40:46;;;;;;;3.10;0.65;;;;;;;6.31;100.00;98866.31;5022662;28;20319;-75
2023/11/08 02:43:12;;;;;;;3.67;0.70;;;;;;;6.47;100.00;98896.81;5021610;28;20029;-77
2023/11/08 02:45:39;;;;;;;2.72;0.43;;;;;;;6.41;100.00;98905.56;5212283;23;20056;-61
2023/11/08 02:48:08;;;;;;;8.55;1.08;;;;;;;6.40;100.00;98901.22;5024494;28;20392;-61
2023/11/08 02:50:40;;;;;;;1.85;0.60;;;;;;;6.38;100.00;98900.56;5016607;28;20034;-62
2023/11/08 02:53:08;;;;;;;4.63;0.70;;;;;;;6.36;100.00;98893.47;5032023;28;20083;-62
2023/11/08 02:55:34;;;;;;;1.98;0.63;;;;;;;6.35;100.00;98896.34;5022170;28;20025;-61
2023/11/08 02:58:02;;;;;;;2.25;0.50;;;;;;;6.17;100.00;98898.44;5031690;28;20061;-61
2023/11/08 03:00:28;;;;;;;4.25;0.75;;;;;;;6.10;100.00;98901.84;5021597;28;20370;-61
2023/11/08 03:02:54;;;;;;;4.45;0.90;;;;;;;6.07;100.00;98917.44;5021597;28;20458;-72
2023/11/08 03:05:24;;;;;;;3.90;0.77;;;;;;;6.01;100.00;98920.81;5016386;28;20060;-61
2023/11/08 03:07:52;;;;;;;2.22;0.55;;;;;;;6.10;100.00;98917.09;5033498;28;20457;-62
2023/11/08 03:10:18;;;;;;;2.47;1.03;;;;;;;6.07;100.00;98912.06;5027291;28;20448;-62
2023/11/08 03:12:51;;;;;;;2.13;1.30;;;;;;;6.13;100.00;98922.09;5026009;28;20091;-62
2023/11/08 03:15:17;;;;;;;3.05;0.73;;;;;;;6.10;100.00;98928.69;5020289;28;20042;-62
2023/11/08 03:17:45;;;;;;;1.88;0.75;;;;;;;6.11;100.00;98922.28;5039503;28;20025;-62
2023/11/08 03:20:35;;;;;;;3.63;0.70;;;;;;;6.03;100.00;98926.84;5040247;28;20036;-62
2023/11/08 03:23:00;;;;;;;2.33;0.80;;;;;;;6.02;100.00;98935.91;5016887;28;20481;-61
2023/11/08 03:25:26;;;;;;;4.18;0.73;;;;;;;6.06;100.00;98935.41;5026813;28;20033;-61
2023/11/08 03:27:51;;;;;;;2.35;0.60;;;;;;;6.08;100.00;98941.44;5021992;28;20032;-61
2023/11/08 03:30:17;;;;;;;1.40;0.43;;;;;;;6.11;100.00;98940.28;5022948;28;20051;-61
2023/11/08 03:32:43;;;;;;;3.33;0.70;;;;;;;6.08;100.00;98935.25;5030864;28;20033;-62
2023/11/08 03:35:09;;;;;;;1.15;0.52;;;;;;;6.03;100.00;98937.59;5016381;28;20044;-61
2023/11/08 03:37:38;;;;;;;2.10;0.80;;;;;;;5.95;100.00;98945.66;5028339;28;22322;-61
2023/11/08 03:40:05;;;;;;;2.28;0.70;;;;;;;5.98;100.00;98950.69;5012432;28;20041;-61
2023/11/08 03:42:34;;;;;;;1.10;0.40;;;;;;;6.07;100.00;98947.81;5019149;28;20080;-61
2023/11/08 03:45:03;;;;;;;3.85;0.63;;;;;;;6.16;100.00;98948.66;5026835;28;20432;-62
2023/11/08 03:47:30;;;;;;;2.05;0.70;;;;;;;6.18;100.00;98948.47;5015910;28;20363;-61
2023/11/08 03:49:56;;;;;;;2.33;0.90;;;;;;;6.22;100.00;98950.63;5017790;28;20144;-61
2023/11/08 03:52:23;;;;;;;2.45;0.82;;;;;;;6.20;100.00;98955.34;5028410;28;20086;-61
2023/11/08 03:54:48;;;;;;;1.85;0.60;;;;;;;6.18;100.00;98938.53;5027426;28;20025;-61
2023/11/08 03:57:14;;;;;;;0.70;0.50;;;;;;;6.24;100.00;98951.31;5027338;28;20040;-61
2023/11/08 03:59:39;;;;;;;3.92;0.85;;;;;;;6.24;100.00;98950.47;5027434;28;20037;-62
2023/11/08 04:02:05;;;;;;;3.00;0.90;;;;;;;6.21;100.00;98946.28;5028479;28;20071;-62
2023/11/08 04:04:30;;;;;;;3.03;1.10;;;;;;;6.18;100.00;98946.59;5023243;28;20073;-61
2023/11/08 04:06:55;;;;;;;3.33;0.98;;;;;;;6.13;100.00;98952.50;5017801;28;20025;-61
2023/11/08 04:09:21;;;;;;;3.15;0.93;;;;;;;6.09;100.00;98947.66;5029966;28;20404;-61
2023/11/08 04:11:46;;;;;;;1.58;0.73;;;;;;;6.18;100.00;98951.97;5027701;28;20083;-62
2023/11/08 04:14:11;;;;;;;4.78;0.70;;;;;;;6.21;100.00;98958.84;5034257;28;20037;-62
2023/11/08 04:16:39;;;;;;;1.75;0.57;;;;;;;6.26;100.00;98954.69;5034055;28;20040;-62
2023/11/08 04:19:04;;;;;;;2.17;0.70;;;;;;;6.25;100.00;98952.97;5022376;28;20523;-61
2023/11/08 04:21:30;;;;;;;1.83;0.70;;;;;;;6.24;100.00;98950.47;5010874;28;20022;-62
2023/11/08 04:23:55;;;;;;;2.30;0.52;;;;;;;6.22;100.00;98953.31;5020603;28;20025;-61
2023/11/08 04:26:21;;;;;;;1.40;0.57;;;;;;;6.22;100.00;98952.50;5027244;28;20081;-61
2023/11/08 04:28:47;;;;;;;1.85;0.75;;;;;;;6.28;100.00;98962.53;5022684;28;20025;-62
2023/11/08 04:31:12;;;;;;;2.35;0.60;;;;;;;6.25;100.00;98955.66;5030586;28;20036;-61
2023/11/08 04:33:38;;;;;;;3.78;0.80;;;;;;;6.27;100.00;98961.72;5020109;28;20121;-61
2023/11/08 04:36:04;;;;;;;2.67;0.70;;;;;;;6.29;100.00;98964.25;5032872;28;20032;-61
2023/11/08 04:38:30;;;;;;;4.45;0.65;;;;;;;6.34;100.00;98959.16;5038683;28;20387;-61
2023/11/08 04:40:55;;;;;;;2.10;0.98;;;;;;;6.36;100.00;98965.19;5032823;28;20480;-62
2023/11/08 04:43:21;;;;;;;4.40;0.90;;;;;;;6.40;100.00;98960.34;5021739;28;20046;-54
2023/11/08 04:45:46;;;;;;;3.28;1.15;;;;;;;6.40;100.00;98961.19;5023012;28;20045;-54
2023/11/08 04:48:12;;;;;;;1.73;0.80;;;;;;;6.40;100.00;98957.66;5024345;28;20034;-54
2023/11/08 04:50:40;;;;;;;2.05;0.65;;;;;;;6.39;100.00;98975.59;5022751;28;20037;-54
2023/11/08 04:53:05;;;;;;;2.45;0.65;;;;;;;6.37;100.00;98966.91;5021908;28;20081;-55
2023/11/08 04:55:31;;;;;;;2.78;0.85;;;;;;;6.31;100.00;98975.63;5026676;28;20056;-55
2023/11/08 04:57:57;;;;;;;1.58;0.50;;;;;;;6.25;100.00;98974.47;5032830;28;20038;-55
2023/11/08 05:00:22;;;;;;;2.63;0.60;;;;;;;6.25;100.00;98969.09;5028929;28;20044;-55
2023/11/08 05:02:47;;;;;;;2.25;1.02;;;;;;;6.29;100.00;98966.94;5023816;28;20097;-55
2023/11/08 05:05:14;;;;;;;3.33;1.23;;;;;;;6.23;100.00;98972.97;5019989;28;20056;-55
2023/11/08 05:07:42;;;;;;;5.63;1.30;;;;;;;6.20;100.00;98970.63;5030542;28;20025;-55
2023/11/08 05:10:09;;;;;;;4.07;0.88;;;;;;;6.15;100.00;98969.28;5031828;28;20071;-55
2023/11/08 05:12:35;;;;;;;2.97;1.05;;;;;;;6.09;100.00;98967.28;5027750;28;20381;-55
2023/11/08 05:15:01;;;;;;;4.72;1.10;;;;;;;6.06;100.00;98969.47;5026227;28;20052;-55
2023/11/08 05:17:26;;;;;;;2.38;0.98;;;;;;;6.00;100.00;98972.84;5028155;28;20082;-55
2023/11/08 05:19:52;;;;;;;0.98;0.60;;;;;;;5.97;100.00;98976.69;5019686;28;20030;-55
2023/11/08 05:22:18;;;;;;;2.30;0.77;;;;;;;5.96;100.00;98982.25;5024626;28;20417;-55
2023/11/08 05:24:44;;;;;;;4.13;0.98;;;;;;;5.84;100.00;98976.34;5028667;28;20025;-55
2023/11/08 05:27:18;;;;;;;4.03;1.13;;;;;;;5.70;100.00;98977.88;5019821;28;20393;-55
2023/11/08 05:29:44;;;;;;;4.85;1.02;;;;;;;5.60;100.00;98977.19;5030036;28;20040;-55
2023/11/08 05:32:20;;;;;;;6.13;1.02;;;;;;;5.60;100.00;98982.56;5022201;28;20477;-55
2023/11/08 05:34:47;;;;;;;2.70;0.90;;;;;;;5.62;100.00;98980.53;5016419;28;20113;-54
2023/11/08 05:37:14;;;;;;;5.50;1.10;;;;;;;5.65;100.00;98972.16;5025645;28;20033;-55
2023/11/08 05:40:09;;;;;;;6.70;1.13;;;;;;;5.70;100.00;98984.06;5040314;23;20037;-55
2023/11/08 05:42:34;;;;;;;4.28;1.33;;;;;;;5.71;100.00;98972.34;5060832;23;20514;-75
2023/11/08 05:44:59;;;;;;;2.75;0.90;;;;;;;5.74;100.00;98965.78;5051652;28;20037;-76
2023/11/08 05:47:25;;;;;;;3.53;0.90;;;;;;;5.85;100.00;98972.66;5028067;28;20034;-76
2023/11/08 05:49:50;;;;;;;3.88;0.93;;;;;;;5.79;100.00;98968.81;5025757;28;20029;-76
2023/11/08 05:52:18;;;;;;;5.68;0.95;;;;;;;5.80;100.00;98975.84;5024218;28;20037;-75
2023/11/08 05:54:44;;;;;;;3.37;0.90;;;;;;;5.92;100.00;98981.69;5021900;28;20022;-76
2023/11/08 05:57:09;;;;;;;6.75;1.20;;;;;;;5.90;100.00;98976.50;5018054;28;20014;-77
2023/11/08 05:59:35;;;;;;;7.75;1.75;;;;;;;5.87;100.00;98976.84;5025871;28;20080;-77
2023/11/08 06:02:01;;;;;;;2.80;1.55;;;;;;;5.95;100.00;98988.63;5024560;28;20378;-77
2023/11/08 06:04:26;;;;;;;5.28;1.40;;;;;;;5.93;100.00;98980.72;5023281;28;20144;-77
2023/11/08 06:06:52;;;;;;;10.55;3.45;;;;;;;6.03;100.00;98981.41;5019731;28;20030;-77
2023/11/08 06:09:18;;;;;;;3.85;1.40;;;;;;;5.84;100.00;98971.84;5023356;28;20319;-78
2023/11/08 06:11:44;;;;;;;3.33;0.90;;;;;;;5.98;100.00;98991.00;5019407;28;20017;-75
2023/11/08 06:14:10;;;;;;;4.07;1.45;;;;;;;5.96;100.00;98998.38;5022918;28;20022;-77
2023/11/08 06:16:36;;;;;;;6.00;1.75;;;;;;;5.87;100.00;98979.53;5016684;28;20142;-76
2023/11/08 06:19:01;;;;;;;3.83;1.00;;;;;;;5.93;100.00;98992.31;5007548;28;20018;-76
2023/11/08 06:21:27;;;;;;;8.77;1.50;;;;;;;5.94;100.00;98993.16;5007703;28;20329;-75
2023/11/08 06:23:52;;;;;;;5.60;1.42;;;;;;;5.87;100.00;98990.28;5022043;28;20014;-74
2023/11/08 06:26:17;;;;;;;2.05;1.17;;;;;;;5.82;100.00;98995.31;5023481;28;20028;-74
2023/11/08 06:28:46;;;;;;;4.55;1.13;;;;;;;5.88;100.00;99000.00;5015519;28;20030;-76
2023/11/08 06:31:12;;;;;;;4.80;0.90;;;;;;;5.95;100.00;98999.34;5022081;28;20030;-75
2023/11/08 06:33:40;;;;;;;5.93;0.90;;;;;;;6.05;100.00;99008.94;5019781;28;20269;-75
2023/11/08 06:36:05;;;;;;;5.13;1.10;;;;;;;6.10;100.00;99008.41;5015286;28;20326;-76
2023/11/08 06:38:31;;;;;;;4.13;1.30;;;;;;;6.11;100.00;99008.25;5024253;28;20040;-76
2023/11/08 06:40:56;;;;;;;6.90;1.05;;;;;;;6.11;100.00;99002.88;5023486;28;20021;-75
2023/11/08 06:43:22;;;;;;;5.68;1.23;;;;;;;6.16;100.00;99002.38;5021528;28;20092;-75
2023/11/08 06:45:49;;;;;;;6.13;1.10;;;;;;;6.23;100.00;99013.25;5023483;28;20021;-74
2023/11/08 06:48:14;;;;;;;1.83;1.20;;;;;;;6.19;100.00;99015.47;5020666;28;20088;-78
2023/11/08 06:50:39;;;;;;;7.43;1.85;;;;;;;6.26;100.00;99024.53;5022768;28;20017;-78
2023/11/08 06:53:04;;;;;;;4.40;2.20;;;;;;;6.37;100.00;99020.66;5023739;28;20022;-77
2023/11/08 06:55:32;;;;;;;11.98;2.83;;;;;;;6.50;100.00;99023.63;5023391;28;20049;-76
2023/11/08 06:58:02;;;;;;;6.35;1.92;;;;;;;6.70;100.00;99034.00;5023839;28;20092;-76
2023/11/08 07:00:28;;;;;;;3.85;1.08;;;;;;;6.75;100.00;99031.63;5024059;28;20261;-78
2023/11/08 07:02:53;;;;;;;3.13;1.10;;;;;;;6.97;100.00;99033.56;5022971;28;20044;-77
2023/11/08 07:05:19;;;;;;;3.53;1.42;;;;;;;7.11;100.00;99010.47;5022988;28;20049;-75
2023/11/08 07:07:45;;;;;;;4.55;1.80;;;;;;;7.36;100.00;99031.84;5017458;28;20085;-76
2023/11/08 07:10:11;;;;;;;4.70;1.90;;;;;;;8.30;100.00;99010.91;5021288;28;20022;-77
2023/11/08 07:12:40;;;;;;;3.38;1.80;;;;;;;9.49;100.00;99002.75;5022549;28;20025;-77
2023/11/08 07:15:07;;;;;;;6.00;1.70;;;;;;;9.69;100.00;99001.06;5021996;28;20025;-77
2023/11/08 07:17:34;;;;;;;3.45;1.52;;;;;;;9.69;100.00;99003.78;5022932;28;20289;-76
2023/11/08 07:20:00;;;;;;;10.00;3.45;;;;;;;9.52;100.00;99015.88;5018249;28;20022;-76
2023/11/08 07:22:25;;;;;;;3.08;1.50;;;;;;;9.61;100.00;99025.50;5028363;28;20036;-74
2023/11/08 07:24:51;;;;;;;4.65;1.10;;;;;;;10.01;100.00;99018.66;5022225;28;20088;-74
2023/11/08 07:27:17;;;;;;;4.82;1.30;;;;;;;11.50;100.00;99017.44;5014784;28;20038;-75
2023/11/08 07:29:42;;;;;;;3.38;1.35;;;;;;;13.93;100.00;98990.25;5013369;28;20080;-77
2023/11/08 07:32:12;;;;;;;5.32;1.30;;;;;;;16.37;100.00;98987.56;5010992;28;20030;-78
2023/11/08 07:34:37;;;;;;;4.80;1.45;;;;;;;17.96;98.62;98993.63;5008166;28;20018;-74
2023/11/08 07:37:03;;;;;;;6.00;2.00;;;;;;;18.50;89.59;99009.59;5023501;28;20056;-74
2023/11/08 07:39:28;;;;;;;5.15;2.00;;;;;;;18.21;88.28;99006.06;5020165;28;20049;-73
2023/11/08 07:41:54;;;;;;;3.67;1.48;;;;;;;18.77;81.84;99007.00;5022534;28;20029;-74
2023/11/08 07:44:19;;;;;;;6.22;1.75;;;;;;;18.60;81.38;99010.56;5016998;28;20044;-73
2023/11/08 07:46:44;;;;;;;5.88;2.60;;;;;;;19.99;76.78;99013.19;5015303;28;20029;-73
2023/11/08 07:49:10;;;;;;;10.07;3.45;;;;;;;19.02;74.28;99007.38;5023062;28;20029;-78
2023/11/08 07:51:35;;;;;;;6.22;2.33;;;;;;;19.23;76.56;99021.31;5024815;28;20033;-77
2023/11/08 07:54:01;;;;;;;4.50;1.13;;;;;;;20.88;71.51;99019.13;5021662;28;20076;-75
2023/11/08 07:56:26;;;;;;;3.17;1.10;;;;;;;21.26;64.60;99012.47;5016660;28;20049;-75
2023/11/08 07:58:55;;;;;;;2.97;0.95;;;;;;;21.45;66.03;99018.34;5018416;28;20180;-75
2023/11/08 08:01:20;;;;;;;4.63;1.20;;;;;;;22.03;61.50;99021.84;5022621;28;20085;-77
2023/11/08 08:03:45;;;;;;;2.28;0.70;;;;;;;21.18;62.21;99013.81;5024976;28;20319;-73
2023/11/08 08:06:11;;;;;;;4.95;1.00;;;;;;;18.93;65.37;99021.75;5021721;28;20133;-73
2023/11/08 08:08:36;;;;;;;3.30;0.82;;;;;;;15.51;76.03;99019.69;5027679;28;20033;-74
2023/11/08 08:11:03;;;;;;;5.53;0.77;;;;;;;13.73;100.00;99023.03;5025995;28;20030;-74
2023/11/08 08:13:28;;;;;;;4.03;0.63;;;;;;;12.39;100.00;99017.19;5025400;28;20251;-76
2023/11/08 08:15:54;;;;;;;4.15;0.60;;;;;;;11.75;100.00;99036.69;5026455;28;20132;-76
2023/11/08 08:18:19;;;;;;;4.53;0.90;;;;;;;10.82;100.00;99030.91;5024731;28;20088;-76
2023/11/08 08:20:45;;;;;;;3.20;1.15;;;;;;;10.56;100.00;99037.84;5025338;28;20287;-76
2023/11/08 08:23:10;;;;;;;4.85;0.90;;;;;;;10.36;100.00;99012.50;5025236;28;20072;-75
2023/11/08 08:25:38;;;;;;;2.63;0.90;;;;;;;11.77;100.00;99026.50;5024999;28;20034;-78
2023/11/08 08:28:05;;;;;;;3.58;0.70;;;;;;;12.78;100.00;99026.28;5025752;28;20057;-76
2023/11/08 08:30:30;;;;;;;1.38;0.50;;;;;;;14.97;100.00;99020.56;5024581;28;20096;-76
2023/11/08 08:32:58;;;;;;;3.60;0.60;;;;;;;18.77;94.14;99007.81;5026460;28;20041;-76
2023/11/08 08:35:24;;;;;;;2.77;0.53;;;;;;;19.76;79.68;99002.53;5020040;28;20032;-76
2023/11/08 08:37:49;;;;;;;1.60;0.85;;;;;;;20.21;73.10;99015.84;5027484;28;20223;-74
2023/11/08 08:40:14;;;;;;;2.13;0.50;;;;;;;21.18;68.66;99000.03;5028274;28;20098;-77
2023/11/08 08:42:41;;;;;;;0.95;0.40;;;;;;;21.64;63.98;99005.78;5024624;28;20033;-74
2023/11/08 08:45:10;;;;;;;2.30;0.68;;;;;;;22.57;60.71;98997.63;5050788;23;20044;-78
2023/11/08 08:47:37;;;;;;;1.77;0.70;;;;;;;22.35;61.66;98984.09;5068873;28;20016;-77
2023/11/08 08:50:03;;;;;;;2.55;0.60;;;;;;;23.08;59.69;98995.63;5060334;28;20020;-77
2023/11/08 08:52:29;;;;;;;1.25;0.57;;;;;;;23.29;57.60;99004.66;5067462;28;20031;-78
2023/11/08 08:54:54;;;;;;;5.35;0.70;;;;;;;23.92;56.92;98986.66;5084462;28;20028;-72
2023/11/08 08:57:19;;;;;;;1.73;0.47;;;;;;;24.42;53.21;99004.00;5101846;28;20340;-73
2023/11/08 08:59:45;;;;;;;3.63;0.60;;;;;;;25.20;52.90;99004.91;5079571;28;20089;-73
2023/11/08 09:02:10;;;;;;;1.40;0.45;;;;;;;24.95;51.65;98993.00;5073601;28;20028;-74
2023/11/08 09:04:36;;;;;;;3.08;0.80;;;;;;;24.87;51.34;99001.94;5069279;28;20028;-77
2023/11/08 09:07:03;;;;;;;1.67;0.63;;;;;;;25.21;50.68;98989.97;5101305;28;20076;-76
2023/11/08 09:09:28;;;;;;;2.03;0.75;;;;;;;24.55;51.54;98980.38;5071907;28;20107;-79
2023/11/08 09:11:53;;;;;;;1.52;0.50;;;;;;;25.53;49.85;98981.78;5064202;28;20334;-80
2023/11/08 09:14:19;;;;;;;2.70;0.52;;;;;;;24.32;50.33;98968.13;5063109;28;20028;-79
2023/11/08 09:16:44;;;;;;;2.13;0.70;;;;;;;25.48;49.75;98992.94;5067550;28;20336;-78
2023/11/08 09:19:10;;;;;;;2.13;0.60;;;;;;;26.38;47.51;98993.88;5070332;28;20028;-75
2023/11/08 09:21:36;;;;;;;2.47;0.70;;;;;;;24.76;49.02;98994.84;5071350;28;20017;-77
2023/11/08 09:24:05;;;;;;;4.13;0.70;;;;;;;26.39;47.73;98998.28;5074986;28;20017;-75
2023/11/08 09:26:31;;;;;;;0.82;0.65;;;;;;;25.65;46.92;98995.22;5073355;28;20016;-76
2023/11/08 09:28:58;;;;;;;2.53;0.70;;;;;;;21.02;52.88;99001.06;5082654;28;20366;-75
2023/11/08 09:31:25;;;;;;;3.67;0.68;;;;;;;18.32;58.95;99014.22;5082218;28;20048;-76
2023/11/08 09:33:51;;;;;;;3.80;0.73;;;;;;;18.07;63.02;99000.94;5065633;28;20091;-76
2023/11/08 09:36:18;;;;;;;4.32;0.68;;;;;;;16.06;71.08;99005.06;5066247;28;20028;-76
2023/11/08 09:38:43;;;;;;;1.55;0.65;;;;;;;15.30;85.31;99014.69;5064423;28;20105;-76
2023/11/08 09:41:09;;;;;;;3.08;0.70;;;;;;;16.17;83.48;98990.59;5083935;28;20024;-76
2023/11/08 09:43:36;;;;;;;1.50;0.40;;;;;;;14.86;96.69;99012.06;5067253;28;20067;-76
2023/11/08 09:46:05;;;;;;;1.17;0.45;;;;;;;14.34;100.00;99010.66;5063132;28;20024;-76
2023/11/08 09:48:31;;;;;;;3.95;0.40;;;;;;;15.00;100.00;99012.75;5057416;28;20029;-76
2023/11/08 09:50:56;;;;;;;2.10;0.60;;;;;;;16.47;91.51;98978.75;5066645;28;20050;-77
2023/11/08 09:53:22;;;;;;;2.22;0.45;;;;;;;15.40;92.37;99011.44;5062200;28;20032;-77
2023/11/08 09:55:49;;;;;;;3.03;0.60;;;;;;;14.92;100.00;98993.16;5061258;28;20016;-76
2023/11/08 09:58:16;;;;;;;0.47;0.30;;;;;;;15.70;97.92;99006.84;5051894;28;20028;-77
2023/11/08 10:00:42;;;;;;;1.05;0.40;;;;;;;15.17;99.00;99014.84;5058630;28;20021;-77
2023/11/08 10:03:09;;;;;;;1.48;0.50;;;;;;;14.47;100.00;98983.31;5061419;28;20032;-76
2023/11/08 10:05:36;;;;;;;2.08;0.63;;;;;;;14.19;100.00;99003.66;5064083;28;20024;-76
2023/11/08 10:08:11;;;;;;;2.40;0.52;;;;;;;14.48;100.00;99012.19;5065139;28;20024;-76
2023/11/08 10:10:37;;;;;;;1.73;0.50;;;;;;;13.88;100.00;99006.41;5076005;28;20031;-76
2023/11/08 10:13:06;;;;;;;1.60;0.52;;;;;;;13.28;100.00;99004.00;5065291;28;20021;-77
2023/11/08 10:15:33;;;;;;;1.23;0.40;;;;;;;13.43;100.00;98991.00;5051430;28;20076;-76
2023/11/08 10:17:58;;;;;;;3.05;0.40;;;;;;;13.20;100.00;99001.50;5060886;28;20016;-76
2023/11/08 10:20:27;;;;;;;1.25;0.32;;;;;;;13.17;100.00;98986.47;5054118;28;20043;-76
2023/11/08 10:22:54;;;;;;;0.82;0.47;;;;;;;12.93;100.00;98990.75;5056205;28;20143;-77
2023/11/08 10:25:19;;;;;;;0.68;0.32;;;;;;;12.61;100.00;98976.22;5062666;28;20330;-77
2023/11/08 10:28:01;;;;;;;3.97;0.70;;;;;;;12.65;100.00;98972.91;5069445;28;20021;-76
2023/11/08 10:30:31;;;;;;;0.50;0.30;;;;;;;12.90;100.00;98985.75;5081479;28;20237;-76
2023/11/08 10:33:09;;;;;;;2.38;0.65;;;;;;;12.68;100.00;98983.31;5067248;28;20027;-76
2023/11/08 10:35:37;;;;;;;1.75;0.40;;;;;;;12.46;100.00;98971.03;5083366;28;20013;-77
2023/11/08 10:38:05;;;;;;;1.88;0.50;;;;;;;12.40;100.00;98985.47;5065246;28;20016;-76
2023/11/08 10:40:32;;;;;;;1.75;0.60;;;;;;;12.44;100.00;98959.56;5065442;28;20052;-76
2023/11/08 10:42:58;;;;;;;1.65;0.40;;;;;;;12.23;100.00;98968.75;5065630;28;20024;-76
2023/11/08 10:45:26;;;;;;;2.85;0.40;;;;;;;12.31;100.00;98965.00;5064597;28;21940;-77
2023/11/08 10:47:51;;;;;;;2.13;0.30;;;;;;;12.23;100.00;98955.19;5088787;28;20023;-76
2023/11/08 10:50:18;;;;;;;1.15;0.47;;;;;;;12.58;100.00;98973.94;5068312;28;20025;-77
2023/11/08 10:52:44;;;;;;;3.03;0.55;;;;;;;12.68;100.00;98971.59;5083702;28;20080;-77
2023/11/08 10:55:11;;;;;;;3.88;0.43;;;;;;;12.46;100.00;98963.72;5063446;28;20016;-78
2023/11/08 10:57:40;;;;;;;3.35;0.60;;;;;;;12.48;100.00;98953.50;5067782;28;20024;-77
2023/11/08 11:00:09;;;;;;;2.03;0.40;;;;;;;12.22;100.00;98967.09;5066363;28;20017;-76
2023/11/08 11:02:48;;;;;;;1.65;0.80;;;;;;;12.20;100.00;98958.34;5056954;28;20272;-76
2023/11/08 11:05:19;;;;;;;2.95;0.50;;;;;;;11.66;100.00;98960.19;5063436;28;20107;-76
2023/11/08 11:07:47;;;;;;;3.80;0.40;;;;;;;11.16;100.00;98957.78;5061785;28;20048;-75
2023/11/08 11:10:15;;;;;;;3.38;0.68;;;;;;;11.07;100.00;98968.97;5080012;28;20028;-76
2023/11/08 11:13:04;;;;;;;2.33;0.50;;;;;;;11.10;100.00;98969.41;5054534;28;20020;-76
2023/11/08 11:15:38;;;;;;;3.80;0.50;;;;;;;10.93;100.00;98957.28;5063712;28;20073;-74
2023/11/08 11:18:09;;;;;;;1.85;0.40;;;;;;;11.33;100.00;98969.06;5090194;28;20024;-74
2023/11/08 11:20:41;;;;;;;2.63;0.63;;;;;;;11.69;100.00;98957.06;5071930;28;20521;-75
2023/11/08 11:23:29;;;;;;;4.25;0.60;;;;;;;12.26;100.00;98961.06;5052062;28;20095;-75
2023/11/08 11:25:54;;;;;;;2.33;0.30;;;;;;;12.72;100.00;98941.09;5057118;28;20084;-75
2023/11/08 11:28:57;;;;;;;4.10;1.40;;;;;;;13.07;100.00;98948.06;5070260;28;20051;-75
2023/11/08 11:31:40;;;;;;;2.60;0.82;;;;;;;13.28;100.00;98950.53;5060641;28;20059;-74